sensor_id;sensor_type;location;lat;lon;timestamp;temperature;humidity
2639;DHT22;1329;51.384;7.122;2022-08-03T00:00:25;22.70;6.30
2639;DHT22;1329;51.384;7.122;2022-08-03T00:02:53;22.60;6.20
2639;DHT22;1329;51.384;7.122;2022-08-03T00:05:21;22.60;6.70
2639;DHT22;1329;51.384;7.122;2022-08-03T00:07:48;22.60;6.80
2639;DHT22;1329;51.384;7.122;2022-08-03T00:10:15;22.60;7.40
2639;DHT22;1329;51.384;7.122;2022-08-03T00:12:43;22.50;7.70
2639;DHT22;1329;51.384;7.122;2022-08-03T00:15:10;22.50;7.90
2639;DHT22;1329;51.384;7.122;2022-08-03T00:17:37;22.50;7.60
2639;DHT22;1329;51.384;7.122;2022-08-03T00:20:06;22.50;7.50
2639;DHT22;1329;51.384;7.122;2022-08-03T00:22:34;22.50;7.40
2639;DHT22;1329;51.384;7.122;2022-08-03T00:25:02;22.50;9.00
2639;DHT22;1329;51.384;7.122;2022-08-03T00:27:30;22.50;8.90
2639;DHT22;1329;51.384;7.122;2022-08-03T00:30:00;22.40;9.70
2639;DHT22;1329;51.384;7.122;2022-08-03T00:32:27;22.40;10.00
2639;DHT22;1329;51.384;7.122;2022-08-03T00:34:54;22.40;10.00
2639;DHT22;1329;51.384;7.122;2022-08-03T00:37:23;22.30;9.80
2639;DHT22;1329;51.384;7.122;2022-08-03T00:39:50;22.30;10.30
2639;DHT22;1329;51.384;7.122;2022-08-03T00:42:17;22.30;10.30
2639;DHT22;1329;51.384;7.122;2022-08-03T00:44:49;22.30;11.00
2639;DHT22;1329;51.384;7.122;2022-08-03T00:47:17;22.30;11.20
2639;DHT22;1329;51.384;7.122;2022-08-03T00:49:44;22.20;11.70
2639;DHT22;1329;51.384;7.122;2022-08-03T00:52:12;22.20;12.10
2639;DHT22;1329;51.384;7.122;2022-08-03T00:54:42;22.20;13.00
2639;DHT22;1329;51.384;7.122;2022-08-03T00:57:10;22.20;12.40
2639;DHT22;1329;51.384;7.122;2022-08-03T00:59:37;22.20;12.00
2639;DHT22;1329;51.384;7.122;2022-08-03T01:02:04;22.10;11.80
2639;DHT22;1329;51.384;7.122;2022-08-03T01:04:32;22.10;12.60
2639;DHT22;1329;51.384;7.122;2022-08-03T01:07:05;22.10;12.80
2639;DHT22;1329;51.384;7.122;2022-08-03T01:09:43;22.10;13.10
2639;DHT22;1329;51.384;7.122;2022-08-03T01:12:19;22.00;13.50
2639;DHT22;1329;51.384;7.122;2022-08-03T01:14:56;22.00;13.30
2639;DHT22;1329;51.384;7.122;2022-08-03T01:17:33;22.10;13.30
2639;DHT22;1329;51.384;7.122;2022-08-03T01:20:08;22.00;13.90
2639;DHT22;1329;51.384;7.122;2022-08-03T01:22:59;22.00;14.10
2639;DHT22;1329;51.384;7.122;2022-08-03T01:25:54;22.00;14.90
2639;DHT22;1329;51.384;7.122;2022-08-03T01:28:52;22.00;14.70
2639;DHT22;1329;51.384;7.122;2022-08-03T01:31:32;22.00;15.30
2639;DHT22;1329;51.384;7.122;2022-08-03T01:34:07;21.90;15.90
2639;DHT22;1329;51.384;7.122;2022-08-03T01:36:40;21.90;15.90
2639;DHT22;1329;51.384;7.122;2022-08-03T01:39:13;21.90;15.80
2639;DHT22;1329;51.384;7.122;2022-08-03T01:41:45;21.80;15.60
2639;DHT22;1329;51.384;7.122;2022-08-03T01:44:14;21.80;17.10
2639;DHT22;1329;51.384;7.122;2022-08-03T01:46:43;21.80;16.70
2639;DHT22;1329;51.384;7.122;2022-08-03T01:49:14;21.80;16.90
2639;DHT22;1329;51.384;7.122;2022-08-03T01:51:42;21.80;17.90
2639;DHT22;1329;51.384;7.122;2022-08-03T01:54:10;21.70;18.40
2639;DHT22;1329;51.384;7.122;2022-08-03T01:56:39;21.70;19.50
2639;DHT22;1329;51.384;7.122;2022-08-03T01:59:08;21.70;19.10
2639;DHT22;1329;51.384;7.122;2022-08-03T02:01:36;21.60;18.80
2639;DHT22;1329;51.384;7.122;2022-08-03T02:04:08;21.70;20.30
2639;DHT22;1329;51.384;7.122;2022-08-03T02:06:38;21.70;21.90
2639;DHT22;1329;51.384;7.122;2022-08-03T02:09:07;21.70;20.70
2639;DHT22;1329;51.384;7.122;2022-08-03T02:11:35;21.70;20.50
2639;DHT22;1329;51.384;7.122;2022-08-03T02:14:04;21.60;21.10
2639;DHT22;1329;51.384;7.122;2022-08-03T02:16:33;21.60;21.20
2639;DHT22;1329;51.384;7.122;2022-08-03T02:19:03;21.60;20.50
2639;DHT22;1329;51.384;7.122;2022-08-03T02:21:35;21.60;21.20
2639;DHT22;1329;51.384;7.122;2022-08-03T02:24:04;21.60;21.30
2639;DHT22;1329;51.384;7.122;2022-08-03T02:26:34;21.60;21.70
2639;DHT22;1329;51.384;7.122;2022-08-03T02:29:06;21.60;21.60
2639;DHT22;1329;51.384;7.122;2022-08-03T02:31:36;21.60;23.20
2639;DHT22;1329;51.384;7.122;2022-08-03T02:34:07;21.50;22.20
2639;DHT22;1329;51.384;7.122;2022-08-03T02:36:38;21.50;22.00
2639;DHT22;1329;51.384;7.122;2022-08-03T02:39:10;21.50;22.90
2639;DHT22;1329;51.384;7.122;2022-08-03T02:41:41;21.50;23.10
2639;DHT22;1329;51.384;7.122;2022-08-03T02:44:11;21.50;23.80
2639;DHT22;1329;51.384;7.122;2022-08-03T02:46:44;21.60;23.50
2639;DHT22;1329;51.384;7.122;2022-08-03T02:49:16;21.50;23.60
2639;DHT22;1329;51.384;7.122;2022-08-03T02:51:44;21.50;23.50
2639;DHT22;1329;51.384;7.122;2022-08-03T02:54:16;21.50;24.70
2639;DHT22;1329;51.384;7.122;2022-08-03T02:56:45;21.60;25.70
2639;DHT22;1329;51.384;7.122;2022-08-03T02:59:15;21.50;24.90
2639;DHT22;1329;51.384;7.122;2022-08-03T03:01:46;21.50;24.80
2639;DHT22;1329;51.384;7.122;2022-08-03T03:04:15;21.60;24.50
2639;DHT22;1329;51.384;7.122;2022-08-03T03:06:46;21.50;24.90
2639;DHT22;1329;51.384;7.122;2022-08-03T03:09:14;21.50;25.40
2639;DHT22;1329;51.384;7.122;2022-08-03T03:11:41;21.50;25.40
2639;DHT22;1329;51.384;7.122;2022-08-03T03:14:10;21.50;25.30
2639;DHT22;1329;51.384;7.122;2022-08-03T03:16:39;21.50;25.60
2639;DHT22;1329;51.384;7.122;2022-08-03T03:19:08;21.50;25.40
2639;DHT22;1329;51.384;7.122;2022-08-03T03:21:38;21.50;27.10
2639;DHT22;1329;51.384;7.122;2022-08-03T03:24:06;21.50;26.40
2639;DHT22;1329;51.384;7.122;2022-08-03T03:26:38;21.50;26.30
2639;DHT22;1329;51.384;7.122;2022-08-03T03:29:06;21.50;26.80
2639;DHT22;1329;51.384;7.122;2022-08-03T03:31:34;21.50;26.50
2639;DHT22;1329;51.384;7.122;2022-08-03T03:34:02;21.50;26.50
2639;DHT22;1329;51.384;7.122;2022-08-03T03:36:29;21.50;27.40
2639;DHT22;1329;51.384;7.122;2022-08-03T03:38:58;21.50;27.30
2639;DHT22;1329;51.384;7.122;2022-08-03T03:41:28;21.50;27.60
2639;DHT22;1329;51.384;7.122;2022-08-03T03:43:56;21.50;28.40
2639;DHT22;1329;51.384;7.122;2022-08-03T03:46:23;21.50;28.90
2639;DHT22;1329;51.384;7.122;2022-08-03T03:48:51;21.50;28.50
2639;DHT22;1329;51.384;7.122;2022-08-03T03:51:21;21.50;28.10
2639;DHT22;1329;51.384;7.122;2022-08-03T03:53:55;21.40;28.70
2639;DHT22;1329;51.384;7.122;2022-08-03T03:56:25;21.50;28.90
2639;DHT22;1329;51.384;7.122;2022-08-03T03:58:53;21.50;29.00
2639;DHT22;1329;51.384;7.122;2022-08-03T04:01:21;21.50;28.60
2639;DHT22;1329;51.384;7.122;2022-08-03T04:03:48;21.40;29.30
2639;DHT22;1329;51.384;7.122;2022-08-03T04:06:16;21.40;29.30
2639;DHT22;1329;51.384;7.122;2022-08-03T04:09:03;21.40;31.00
2639;DHT22;1329;51.384;7.122;2022-08-03T04:11:50;21.40;29.80
2639;DHT22;1329;51.384;7.122;2022-08-03T04:14:22;21.40;30.60
2639;DHT22;1329;51.384;7.122;2022-08-03T04:16:57;21.40;29.90
2639;DHT22;1329;51.384;7.122;2022-08-03T04:19:30;21.40;30.20
2639;DHT22;1329;51.384;7.122;2022-08-03T04:22:02;21.40;30.00
2639;DHT22;1329;51.384;7.122;2022-08-03T04:24:39;21.40;31.70
2639;DHT22;1329;51.384;7.122;2022-08-03T04:27:11;21.40;31.90
2639;DHT22;1329;51.384;7.122;2022-08-03T04:29:45;21.40;31.20
2639;DHT22;1329;51.384;7.122;2022-08-03T04:32:15;21.40;32.90
2639;DHT22;1329;51.384;7.122;2022-08-03T04:34:43;21.40;32.90
2639;DHT22;1329;51.384;7.122;2022-08-03T04:37:13;21.40;33.50
2639;DHT22;1329;51.384;7.122;2022-08-03T04:39:52;21.40;33.80
2639;DHT22;1329;51.384;7.122;2022-08-03T04:42:21;21.40;32.40
2639;DHT22;1329;51.384;7.122;2022-08-03T04:44:50;21.40;34.10
2639;DHT22;1329;51.384;7.122;2022-08-03T04:47:19;21.40;34.70
2639;DHT22;1329;51.384;7.122;2022-08-03T04:49:48;21.50;34.70
2639;DHT22;1329;51.384;7.122;2022-08-03T04:52:16;21.50;33.90
2639;DHT22;1329;51.384;7.122;2022-08-03T04:54:46;21.50;33.80
2639;DHT22;1329;51.384;7.122;2022-08-03T04:57:15;21.50;37.20
2639;DHT22;1329;51.384;7.122;2022-08-03T04:59:42;21.50;36.40
2639;DHT22;1329;51.384;7.122;2022-08-03T05:02:10;21.50;35.70
2639;DHT22;1329;51.384;7.122;2022-08-03T05:04:37;21.60;36.40
2639;DHT22;1329;51.384;7.122;2022-08-03T05:07:07;21.60;34.40
2639;DHT22;1329;51.384;7.122;2022-08-03T05:09:34;21.60;33.90
2639;DHT22;1329;51.384;7.122;2022-08-03T05:12:03;21.60;34.60
2639;DHT22;1329;51.384;7.122;2022-08-03T05:14:33;21.60;34.80
2639;DHT22;1329;51.384;7.122;2022-08-03T05:17:02;21.60;34.40
2639;DHT22;1329;51.384;7.122;2022-08-03T05:19:30;21.60;34.90
2639;DHT22;1329;51.384;7.122;2022-08-03T05:21:57;21.60;35.00
2639;DHT22;1329;51.384;7.122;2022-08-03T05:24:25;21.60;34.70
2639;DHT22;1329;51.384;7.122;2022-08-03T05:26:53;21.60;34.40
2639;DHT22;1329;51.384;7.122;2022-08-03T05:29:20;21.60;34.40
2639;DHT22;1329;51.384;7.122;2022-08-03T05:31:49;21.60;34.80
2639;DHT22;1329;51.384;7.122;2022-08-03T05:34:19;21.70;33.80
2639;DHT22;1329;51.384;7.122;2022-08-03T05:36:48;21.70;34.10
2639;DHT22;1329;51.384;7.122;2022-08-03T05:39:15;21.70;35.30
2639;DHT22;1329;51.384;7.122;2022-08-03T05:41:45;21.60;35.40
2639;DHT22;1329;51.384;7.122;2022-08-03T05:44:12;21.80;35.60
2639;DHT22;1329;51.384;7.122;2022-08-03T05:46:40;21.80;37.10
2639;DHT22;1329;51.384;7.122;2022-08-03T05:49:09;21.80;36.50
2639;DHT22;1329;51.384;7.122;2022-08-03T05:51:36;21.80;36.40
2639;DHT22;1329;51.384;7.122;2022-08-03T05:54:03;21.80;37.50
2639;DHT22;1329;51.384;7.122;2022-08-03T05:56:30;21.90;37.90
2639;DHT22;1329;51.384;7.122;2022-08-03T05:59:01;21.90;38.40
2639;DHT22;1329;51.384;7.122;2022-08-03T06:01:28;21.90;37.80
2639;DHT22;1329;51.384;7.122;2022-08-03T06:03:57;22.00;38.30
2639;DHT22;1329;51.384;7.122;2022-08-03T06:06:26;22.00;37.60
2639;DHT22;1329;51.384;7.122;2022-08-03T06:08:53;22.00;36.60
2639;DHT22;1329;51.384;7.122;2022-08-03T06:11:20;22.00;40.20
2639;DHT22;1329;51.384;7.122;2022-08-03T06:13:49;22.10;39.60
2639;DHT22;1329;51.384;7.122;2022-08-03T06:16:18;22.10;38.50
2639;DHT22;1329;51.384;7.122;2022-08-03T06:18:47;22.10;40.00
2639;DHT22;1329;51.384;7.122;2022-08-03T06:21:15;22.20;39.00
2639;DHT22;1329;51.384;7.122;2022-08-03T06:23:45;22.30;38.50
2639;DHT22;1329;51.384;7.122;2022-08-03T06:26:13;22.30;36.70
2639;DHT22;1329;51.384;7.122;2022-08-03T06:28:40;22.40;38.90
2639;DHT22;1329;51.384;7.122;2022-08-03T06:31:11;22.50;38.20
2639;DHT22;1329;51.384;7.122;2022-08-03T06:33:38;22.60;37.70
2639;DHT22;1329;51.384;7.122;2022-08-03T06:36:08;22.60;37.30
2639;DHT22;1329;51.384;7.122;2022-08-03T06:38:38;22.60;37.40
2639;DHT22;1329;51.384;7.122;2022-08-03T06:41:07;22.70;37.10
2639;DHT22;1329;51.384;7.122;2022-08-03T06:43:35;22.70;37.30
2639;DHT22;1329;51.384;7.122;2022-08-03T06:46:03;22.80;38.90
2639;DHT22;1329;51.384;7.122;2022-08-03T06:48:30;22.80;38.00
2639;DHT22;1329;51.384;7.122;2022-08-03T06:50:58;22.90;37.80
2639;DHT22;1329;51.384;7.122;2022-08-03T06:53:27;22.90;37.90
2639;DHT22;1329;51.384;7.122;2022-08-03T06:55:54;23.00;35.80
2639;DHT22;1329;51.384;7.122;2022-08-03T06:58:23;23.00;38.20
2639;DHT22;1329;51.384;7.122;2022-08-03T07:00:53;23.10;36.00
2639;DHT22;1329;51.384;7.122;2022-08-03T07:03:23;23.20;36.40
2639;DHT22;1329;51.384;7.122;2022-08-03T07:05:51;23.20;37.40
2639;DHT22;1329;51.384;7.122;2022-08-03T07:08:21;23.20;37.50
2639;DHT22;1329;51.384;7.122;2022-08-03T07:10:49;23.30;37.60
2639;DHT22;1329;51.384;7.122;2022-08-03T07:13:17;23.40;38.70
2639;DHT22;1329;51.384;7.122;2022-08-03T07:15:48;23.40;36.90
2639;DHT22;1329;51.384;7.122;2022-08-03T07:18:18;23.50;38.20
2639;DHT22;1329;51.384;7.122;2022-08-03T07:20:47;23.60;38.90
2639;DHT22;1329;51.384;7.122;2022-08-03T07:23:14;23.70;37.50
2639;DHT22;1329;51.384;7.122;2022-08-03T07:25:44;23.80;36.20
2639;DHT22;1329;51.384;7.122;2022-08-03T07:28:15;23.80;34.80
2639;DHT22;1329;51.384;7.122;2022-08-03T07:30:43;23.90;31.90
2639;DHT22;1329;51.384;7.122;2022-08-03T07:33:12;24.00;32.70
2639;DHT22;1329;51.384;7.122;2022-08-03T07:35:40;24.10;29.30
2639;DHT22;1329;51.384;7.122;2022-08-03T07:38:10;24.20;28.50
2639;DHT22;1329;51.384;7.122;2022-08-03T07:40:40;24.30;25.60
2639;DHT22;1329;51.384;7.122;2022-08-03T07:43:08;24.30;29.10
2639;DHT22;1329;51.384;7.122;2022-08-03T07:45:38;24.40;28.30
2639;DHT22;1329;51.384;7.122;2022-08-03T07:48:10;24.50;21.40
2639;DHT22;1329;51.384;7.122;2022-08-03T07:50:42;24.60;21.30
2639;DHT22;1329;51.384;7.122;2022-08-03T07:53:12;24.70;21.10
2639;DHT22;1329;51.384;7.122;2022-08-03T07:55:44;24.70;22.20
2639;DHT22;1329;51.384;7.122;2022-08-03T07:58:21;24.80;17.10
2639;DHT22;1329;51.384;7.122;2022-08-03T08:00:53;24.90;17.60
2639;DHT22;1329;51.384;7.122;2022-08-03T08:03:25;25.00;18.40
2639;DHT22;1329;51.384;7.122;2022-08-03T08:06:00;25.10;11.50
2639;DHT22;1329;51.384;7.122;2022-08-03T08:08:36;25.20;10.90
2639;DHT22;1329;51.384;7.122;2022-08-03T08:11:03;25.20;14.20
2639;DHT22;1329;51.384;7.122;2022-08-03T08:13:32;25.30;12.70
2639;DHT22;1329;51.384;7.122;2022-08-03T08:16:04;25.40;10.50
2639;DHT22;1329;51.384;7.122;2022-08-03T08:18:33;25.50;6.10
2639;DHT22;1329;51.384;7.122;2022-08-03T08:21:00;25.60;6.40
2639;DHT22;1329;51.384;7.122;2022-08-03T08:23:29;25.70;8.20
2639;DHT22;1329;51.384;7.122;2022-08-03T08:25:58;25.70;5.90
2639;DHT22;1329;51.384;7.122;2022-08-03T08:28:33;25.80;4.70
2639;DHT22;1329;51.384;7.122;2022-08-03T08:31:04;25.90;1.00
2639;DHT22;1329;51.384;7.122;2022-08-03T08:33:37;25.90;2.70
2639;DHT22;1329;51.384;7.122;2022-08-03T08:36:16;26.00;1.00
2639;DHT22;1329;51.384;7.122;2022-08-03T08:38:46;26.10;1.70
2639;DHT22;1329;51.384;7.122;2022-08-03T08:41:22;26.20;1.80
2639;DHT22;1329;51.384;7.122;2022-08-03T08:43:50;26.20;1.00
2639;DHT22;1329;51.384;7.122;2022-08-03T08:46:20;26.30;1.00
2639;DHT22;1329;51.384;7.122;2022-08-03T08:48:51;26.30;1.00
2639;DHT22;1329;51.384;7.122;2022-08-03T08:51:27;26.40;1.00
2639;DHT22;1329;51.384;7.122;2022-08-03T08:54:06;26.50;1.00
2639;DHT22;1329;51.384;7.122;2022-08-03T08:56:42;26.60;1.00
2639;DHT22;1329;51.384;7.122;2022-08-03T08:59:16;26.70;1.00
2639;DHT22;1329;51.384;7.122;2022-08-03T09:01:48;26.80;1.00
2639;DHT22;1329;51.384;7.122;2022-08-03T09:04:21;26.90;1.00
2639;DHT22;1329;51.384;7.122;2022-08-03T09:06:51;27.20;1.00
2639;DHT22;1329;51.384;7.122;2022-08-03T09:09:22;27.50;1.20
2639;DHT22;1329;51.384;7.122;2022-08-03T09:11:54;27.90;1.00
2639;DHT22;1329;51.384;7.122;2022-08-03T09:14:30;28.30;2.00
2639;DHT22;1329;51.384;7.122;2022-08-03T09:17:07;28.80;1.00
2639;DHT22;1329;51.384;7.122;2022-08-03T09:19:39;29.20;1.00
2639;DHT22;1329;51.384;7.122;2022-08-03T09:22:35;29.60;1.00
2639;DHT22;1329;51.384;7.122;2022-08-03T09:25:35;30.10;1.00
2639;DHT22;1329;51.384;7.122;2022-08-03T09:28:19;30.50;1.00
2639;DHT22;1329;51.384;7.122;2022-08-03T09:30:59;30.80;1.00
2639;DHT22;1329;51.384;7.122;2022-08-03T09:33:47;31.10;1.00
2639;DHT22;1329;51.384;7.122;2022-08-03T09:36:43;31.40;1.00
2639;DHT22;1329;51.384;7.122;2022-08-03T09:39:39;31.60;1.00
2639;DHT22;1329;51.384;7.122;2022-08-03T09:42:27;31.80;1.00
2639;DHT22;1329;51.384;7.122;2022-08-03T09:45:27;31.90;1.00
2639;DHT22;1329;51.384;7.122;2022-08-03T09:48:30;31.80;1.00
2639;DHT22;1329;51.384;7.122;2022-08-03T09:51:06;31.70;1.00
2639;DHT22;1329;51.384;7.122;2022-08-03T09:53:50;31.40;1.00
2639;DHT22;1329;51.384;7.122;2022-08-03T09:56:43;31.20;1.00
2639;DHT22;1329;51.384;7.122;2022-08-03T09:59:25;31.00;1.00
2639;DHT22;1329;51.384;7.122;2022-08-03T10:01:57;30.70;1.00
2639;DHT22;1329;51.384;7.122;2022-08-03T10:04:48;30.60;1.00
2639;DHT22;1329;51.384;7.122;2022-08-03T10:07:24;30.30;1.00
2639;DHT22;1329;51.384;7.122;2022-08-03T10:09:58;30.10;1.00
2639;DHT22;1329;51.384;7.122;2022-08-03T10:12:33;30.00;1.00
2639;DHT22;1329;51.384;7.122;2022-08-03T10:15:07;29.80;1.00
2639;DHT22;1329;51.384;7.122;2022-08-03T10:17:44;29.70;1.00
2639;DHT22;1329;51.384;7.122;2022-08-03T10:20:15;29.60;1.00
2639;DHT22;1329;51.384;7.122;2022-08-03T10:22:51;29.60;1.00
2639;DHT22;1329;51.384;7.122;2022-08-03T10:25:31;29.50;1.00
2639;DHT22;1329;51.384;7.122;2022-08-03T10:28:21;29.40;1.00
2639;DHT22;1329;51.384;7.122;2022-08-03T10:30:51;29.40;1.00
2639;DHT22;1329;51.384;7.122;2022-08-03T10:33:43;29.40;1.00
2639;DHT22;1329;51.384;7.122;2022-08-03T10:36:33;29.40;1.00
2639;DHT22;1329;51.384;7.122;2022-08-03T10:39:20;29.40;1.00
2639;DHT22;1329;51.384;7.122;2022-08-03T10:42:36;29.40;1.00
2639;DHT22;1329;51.384;7.122;2022-08-03T10:45:26;29.40;1.00
2639;DHT22;1329;51.384;7.122;2022-08-03T10:48:02;29.50;1.00
2639;DHT22;1329;51.384;7.122;2022-08-03T10:50:43;29.50;1.00
2639;DHT22;1329;51.384;7.122;2022-08-03T10:53:38;29.50;1.00
2639;DHT22;1329;51.384;7.122;2022-08-03T10:56:39;29.50;1.00
2639;DHT22;1329;51.384;7.122;2022-08-03T11:00:07;29.60;1.00
2639;DHT22;1329;51.384;7.122;2022-08-03T11:03:00;29.60;1.00
2639;DHT22;1329;51.384;7.122;2022-08-03T11:05:45;29.70;1.00
2639;DHT22;1329;51.384;7.122;2022-08-03T11:08:39;29.70;1.00
2639;DHT22;1329;51.384;7.122;2022-08-03T11:11:33;29.70;1.00
2639;DHT22;1329;51.384;7.122;2022-08-03T11:14:12;29.80;1.00
2639;DHT22;1329;51.384;7.122;2022-08-03T11:17:06;29.80;1.00
2639;DHT22;1329;51.384;7.122;2022-08-03T11:19:45;29.90;1.00
2639;DHT22;1329;51.384;7.122;2022-08-03T11:22:47;29.90;1.00
2639;DHT22;1329;51.384;7.122;2022-08-03T11:26:13;30.00;1.00
2639;DHT22;1329;51.384;7.122;2022-08-03T11:29:26;30.00;1.00
2639;DHT22;1329;51.384;7.122;2022-08-03T11:32:03;30.10;1.00
2639;DHT22;1329;51.384;7.122;2022-08-03T11:47:38;30.50;1.00
2639;DHT22;1329;51.384;7.122;2022-08-03T11:50:33;30.60;1.00
2639;DHT22;1329;51.384;7.122;2022-08-03T11:53:34;30.60;1.00
2639;DHT22;1329;51.384;7.122;2022-08-03T11:56:25;30.70;1.00
2639;DHT22;1329;51.384;7.122;2022-08-03T11:59:37;30.80;1.00
2639;DHT22;1329;51.384;7.122;2022-08-03T12:02:12;30.80;1.00
2639;DHT22;1329;51.384;7.122;2022-08-03T12:07:30;31.00;1.00
2639;DHT22;1329;51.384;7.122;2022-08-03T12:10:10;31.00;1.00
2639;DHT22;1329;51.384;7.122;2022-08-03T12:12:54;31.10;1.00
2639;DHT22;1329;51.384;7.122;2022-08-03T12:15:38;31.20;1.00
2639;DHT22;1329;51.384;7.122;2022-08-03T12:18:23;31.20;1.00
2639;DHT22;1329;51.384;7.122;2022-08-03T12:21:08;31.30;1.00
2639;DHT22;1329;51.384;7.122;2022-08-03T12:23:42;31.30;1.00
2639;DHT22;1329;51.384;7.122;2022-08-03T12:26:29;31.40;1.00
2639;DHT22;1329;51.384;7.122;2022-08-03T12:29:21;31.50;1.00
2639;DHT22;1329;51.384;7.122;2022-08-03T12:31:52;31.60;1.00
2639;DHT22;1329;51.384;7.122;2022-08-03T12:34:46;31.60;1.00
2639;DHT22;1329;51.384;7.122;2022-08-03T12:37:32;31.70;1.00
2639;DHT22;1329;51.384;7.122;2022-08-03T12:40:07;31.80;1.00
2639;DHT22;1329;51.384;7.122;2022-08-03T12:43:06;31.90;1.00
2639;DHT22;1329;51.384;7.122;2022-08-03T12:46:09;32.00;1.00
2639;DHT22;1329;51.384;7.122;2022-08-03T12:49:09;32.10;1.00
2639;DHT22;1329;51.384;7.122;2022-08-03T12:51:58;32.20;1.00
2639;DHT22;1329;51.384;7.122;2022-08-03T12:54:53;32.30;1.00
2639;DHT22;1329;51.384;7.122;2022-08-03T12:57:48;32.40;1.00
2639;DHT22;1329;51.384;7.122;2022-08-03T13:00:31;32.50;1.00
2639;DHT22;1329;51.384;7.122;2022-08-03T13:03:08;32.50;1.00
2639;DHT22;1329;51.384;7.122;2022-08-03T13:05:45;32.60;1.00
2639;DHT22;1329;51.384;7.122;2022-08-03T13:08:25;32.60;1.00
2639;DHT22;1329;51.384;7.122;2022-08-03T13:11:30;32.70;1.00
2639;DHT22;1329;51.384;7.122;2022-08-03T13:14:06;32.70;1.00
2639;DHT22;1329;51.384;7.122;2022-08-03T13:17:00;32.80;1.00
2639;DHT22;1329;51.384;7.122;2022-08-03T13:19:51;32.80;1.00
2639;DHT22;1329;51.384;7.122;2022-08-03T13:22:29;32.80;1.00
2639;DHT22;1329;51.384;7.122;2022-08-03T13:25:38;33.00;1.00
2639;DHT22;1329;51.384;7.122;2022-08-03T13:28:25;33.00;1.00
2639;DHT22;1329;51.384;7.122;2022-08-03T13:31:28;33.10;1.00
2639;DHT22;1329;51.384;7.122;2022-08-03T13:34:12;33.20;1.00
2639;DHT22;1329;51.384;7.122;2022-08-03T13:37:03;33.30;1.00
2639;DHT22;1329;51.384;7.122;2022-08-03T13:39:48;33.30;1.00
2639;DHT22;1329;51.384;7.122;2022-08-03T13:42:36;33.50;1.00
2639;DHT22;1329;51.384;7.122;2022-08-03T13:45:46;33.50;1.00
2639;DHT22;1329;51.384;7.122;2022-08-03T13:48:23;33.70;1.00
2639;DHT22;1329;51.384;7.122;2022-08-03T13:51:02;33.70;1.00
2639;DHT22;1329;51.384;7.122;2022-08-03T13:53:32;33.80;1.00
2639;DHT22;1329;51.384;7.122;2022-08-03T13:56:11;33.80;1.00
2639;DHT22;1329;51.384;7.122;2022-08-03T13:58:50;33.80;1.00
2639;DHT22;1329;51.384;7.122;2022-08-03T14:01:25;33.80;1.00
2639;DHT22;1329;51.384;7.122;2022-08-03T14:04:29;33.90;1.00
2639;DHT22;1329;51.384;7.122;2022-08-03T14:06:57;33.90;1.00
2639;DHT22;1329;51.384;7.122;2022-08-03T14:09:55;33.80;1.00
2639;DHT22;1329;51.384;7.122;2022-08-03T14:13:02;33.90;1.00
2639;DHT22;1329;51.384;7.122;2022-08-03T14:15:48;33.90;1.00
2639;DHT22;1329;51.384;7.122;2022-08-03T14:19:02;34.00;1.00
2639;DHT22;1329;51.384;7.122;2022-08-03T14:22:16;34.10;1.00
2639;DHT22;1329;51.384;7.122;2022-08-03T14:25:12;34.10;1.00
2639;DHT22;1329;51.384;7.122;2022-08-03T14:31:43;34.30;1.00
2639;DHT22;1329;51.384;7.122;2022-08-03T14:34:35;34.30;1.00
2639;DHT22;1329;51.384;7.122;2022-08-03T14:37:33;34.20;1.00
2639;DHT22;1329;51.384;7.122;2022-08-03T14:40:29;34.30;1.00
2639;DHT22;1329;51.384;7.122;2022-08-03T14:43:33;34.40;1.00
2639;DHT22;1329;51.384;7.122;2022-08-03T14:47:04;34.50;1.00
2639;DHT22;1329;51.384;7.122;2022-08-03T14:50:02;34.70;1.00
2639;DHT22;1329;51.384;7.122;2022-08-03T14:56:23;34.90;1.00
2639;DHT22;1329;51.384;7.122;2022-08-03T14:59:27;35.00;1.00
2639;DHT22;1329;51.384;7.122;2022-08-03T15:02:22;35.00;1.00
2639;DHT22;1329;51.384;7.122;2022-08-03T15:05:24;35.10;1.00
2639;DHT22;1329;51.384;7.122;2022-08-03T15:08:15;35.10;1.00
2639;DHT22;1329;51.384;7.122;2022-08-03T15:11:19;35.10;1.00
2639;DHT22;1329;51.384;7.122;2022-08-03T15:14:21;35.20;1.00
2639;DHT22;1329;51.384;7.122;2022-08-03T15:17:18;35.30;1.00
2639;DHT22;1329;51.384;7.122;2022-08-03T15:20:22;35.30;1.00
2639;DHT22;1329;51.384;7.122;2022-08-03T15:23:31;35.30;1.00
2639;DHT22;1329;51.384;7.122;2022-08-03T15:32:37;35.30;1.00
2639;DHT22;1329;51.384;7.122;2022-08-03T15:38:26;35.00;1.00
2639;DHT22;1329;51.384;7.122;2022-08-03T15:41:31;34.80;1.00
2639;DHT22;1329;51.384;7.122;2022-08-03T15:44:07;34.70;1.00
2639;DHT22;1329;51.384;7.122;2022-08-03T15:46:55;34.60;1.00
2639;DHT22;1329;51.384;7.122;2022-08-03T15:50:08;34.50;1.00
2639;DHT22;1329;51.384;7.122;2022-08-03T15:56:22;34.60;1.00
2639;DHT22;1329;51.384;7.122;2022-08-03T15:59:13;34.70;1.00
2639;DHT22;1329;51.384;7.122;2022-08-03T16:02:18;34.70;1.00
2639;DHT22;1329;51.384;7.122;2022-08-03T16:05:08;34.80;1.00
2639;DHT22;1329;51.384;7.122;2022-08-03T16:11:33;34.70;1.00
2639;DHT22;1329;51.384;7.122;2022-08-03T16:14:23;34.70;1.00
2639;DHT22;1329;51.384;7.122;2022-08-03T16:17:07;34.60;1.00
2639;DHT22;1329;51.384;7.122;2022-08-03T16:20:22;34.70;1.00
2639;DHT22;1329;51.384;7.122;2022-08-03T16:23:10;34.70;1.00
2639;DHT22;1329;51.384;7.122;2022-08-03T16:25:55;34.80;1.00
2639;DHT22;1329;51.384;7.122;2022-08-03T16:28:59;34.80;1.00
2639;DHT22;1329;51.384;7.122;2022-08-03T16:32:03;35.00;1.00
2639;DHT22;1329;51.384;7.122;2022-08-03T16:35:03;35.00;1.00
2639;DHT22;1329;51.384;7.122;2022-08-03T16:37:39;35.00;1.00
2639;DHT22;1329;51.384;7.122;2022-08-03T16:40:37;35.00;1.00
2639;DHT22;1329;51.384;7.122;2022-08-03T16:43:45;35.00;1.00
2639;DHT22;1329;51.384;7.122;2022-08-03T16:52:51;35.00;1.00
2639;DHT22;1329;51.384;7.122;2022-08-03T16:56:17;35.00;1.00
2639;DHT22;1329;51.384;7.122;2022-08-03T16:59:03;34.90;1.00
2639;DHT22;1329;51.384;7.122;2022-08-03T17:02:12;34.90;1.00
2639;DHT22;1329;51.384;7.122;2022-08-03T17:04:58;34.90;1.00
2639;DHT22;1329;51.384;7.122;2022-08-03T17:08:01;34.90;1.00
2639;DHT22;1329;51.384;7.122;2022-08-03T17:10:52;34.90;1.00
2639;DHT22;1329;51.384;7.122;2022-08-03T17:13:32;34.90;1.00
2639;DHT22;1329;51.384;7.122;2022-08-03T17:16:26;34.80;1.00
2639;DHT22;1329;51.384;7.122;2022-08-03T17:19:11;34.80;1.00
2639;DHT22;1329;51.384;7.122;2022-08-03T17:22:06;34.80;1.00
2639;DHT22;1329;51.384;7.122;2022-08-03T17:25:18;34.80;1.00
2639;DHT22;1329;51.384;7.122;2022-08-03T17:28:19;34.70;1.00
2639;DHT22;1329;51.384;7.122;2022-08-03T17:31:21;34.70;1.00
2639;DHT22;1329;51.384;7.122;2022-08-03T17:34:39;34.70;1.00
2639;DHT22;1329;51.384;7.122;2022-08-03T17:38:01;34.70;1.00
2639;DHT22;1329;51.384;7.122;2022-08-03T17:40:46;34.60;1.00
2639;DHT22;1329;51.384;7.122;2022-08-03T17:43:37;34.50;1.00
2639;DHT22;1329;51.384;7.122;2022-08-03T17:46:31;34.50;1.00
2639;DHT22;1329;51.384;7.122;2022-08-03T17:52:55;34.40;1.00
2639;DHT22;1329;51.384;7.122;2022-08-03T17:56:08;34.40;1.00
2639;DHT22;1329;51.384;7.122;2022-08-03T17:59:08;34.30;1.00
2639;DHT22;1329;51.384;7.122;2022-08-03T18:02:26;34.30;1.00
2639;DHT22;1329;51.384;7.122;2022-08-03T18:05:42;34.30;1.00
2639;DHT22;1329;51.384;7.122;2022-08-03T18:08:30;34.30;1.00
2639;DHT22;1329;51.384;7.122;2022-08-03T18:11:21;34.10;1.00
2639;DHT22;1329;51.384;7.122;2022-08-03T18:14:06;34.10;1.00
2639;DHT22;1329;51.384;7.122;2022-08-03T18:16:56;34.00;1.00
2639;DHT22;1329;51.384;7.122;2022-08-03T18:19:35;33.90;1.00